sensor_id;sensor_type;location;lat;lon;timestamp;temperature;humidity
12446;DHT22;6287;50.984;7.022;2023-11-19T00:02:24;10.00;99.90
12446;DHT22;6287;50.984;7.022;2023-11-19T00:04:56;10.00;99.90
12446;DHT22;6287;50.984;7.022;2023-11-19T00:07:24;10.00;99.90
12446;DHT22;6287;50.984;7.022;2023-11-19T00:09:52;10.00;99.90
12446;DHT22;6287;50.984;7.022;2023-11-19T00:12:20;10.10;99.90
12446;DHT22;6287;50.984;7.022;2023-11-19T00:14:46;10.10;99.90
12446;DHT22;6287;50.984;7.022;2023-11-19T00:17:14;10.10;99.90
12446;DHT22;6287;50.984;7.022;2023-11-19T00:19:42;10.10;99.90
12446;DHT22;6287;50.984;7.022;2023-11-19T00:22:08;10.10;99.90
12446;DHT22;6287;50.984;7.022;2023-11-19T00:24:38;10.20;99.90
12446;DHT22;6287;50.984;7.022;2023-11-19T00:27:06;10.20;99.90
12446;DHT22;6287;50.984;7.022;2023-11-19T00:29:35;10.20;99.90
12446;DHT22;6287;50.984;7.022;2023-11-19T00:32:01;10.20;99.90
12446;DHT22;6287;50.984;7.022;2023-11-19T00:34:27;10.30;99.90
12446;DHT22;6287;50.984;7.022;2023-11-19T00:36:52;10.20;99.90
12446;DHT22;6287;50.984;7.022;2023-11-19T00:39:21;10.20;99.90
12446;DHT22;6287;50.984;7.022;2023-11-19T00:41:49;10.20;99.90
12446;DHT22;6287;50.984;7.022;2023-11-19T00:44:14;10.30;99.90
12446;DHT22;6287;50.984;7.022;2023-11-19T00:46:40;10.30;99.90
12446;DHT22;6287;50.984;7.022;2023-11-19T00:49:07;10.30;99.90
12446;DHT22;6287;50.984;7.022;2023-11-19T00:51:33;10.40;99.90
12446;DHT22;6287;50.984;7.022;2023-11-19T00:54:02;10.40;99.90
12446;DHT22;6287;50.984;7.022;2023-11-19T00:56:27;10.40;99.90
12446;DHT22;6287;50.984;7.022;2023-11-19T00:58:56;10.40;99.90
12446;DHT22;6287;50.984;7.022;2023-11-19T01:01:24;10.50;99.90
12446;DHT22;6287;50.984;7.022;2023-11-19T01:03:50;10.50;99.90
12446;DHT22;6287;50.984;7.022;2023-11-19T01:06:30;10.50;99.90
12446;DHT22;6287;50.984;7.022;2023-11-19T01:08:56;10.50;99.90
12446;DHT22;6287;50.984;7.022;2023-11-19T01:11:25;10.50;99.90
12446;DHT22;6287;50.984;7.022;2023-11-19T01:13:52;10.50;99.90
12446;DHT22;6287;50.984;7.022;2023-11-19T01:16:20;10.60;99.90
12446;DHT22;6287;50.984;7.022;2023-11-19T01:18:48;10.50;99.90
12446;DHT22;6287;50.984;7.022;2023-11-19T01:21:17;10.60;99.90
12446;DHT22;6287;50.984;7.022;2023-11-19T01:23:42;10.60;99.90
12446;DHT22;6287;50.984;7.022;2023-11-19T01:26:13;10.60;99.90
12446;DHT22;6287;50.984;7.022;2023-11-19T01:28:39;10.60;99.90
12446;DHT22;6287;50.984;7.022;2023-11-19T01:31:08;10.60;99.90
12446;DHT22;6287;50.984;7.022;2023-11-19T01:33:35;10.70;99.90
12446;DHT22;6287;50.984;7.022;2023-11-19T01:36:01;10.70;99.90
12446;DHT22;6287;50.984;7.022;2023-11-19T01:38:29;10.70;99.90
12446;DHT22;6287;50.984;7.022;2023-11-19T01:40:57;10.70;99.90
12446;DHT22;6287;50.984;7.022;2023-11-19T01:46:07;10.80;99.90
12446;DHT22;6287;50.984;7.022;2023-11-19T01:48:35;10.80;99.90
12446;DHT22;6287;50.984;7.022;2023-11-19T01:51:03;10.90;99.90
12446;DHT22;6287;50.984;7.022;2023-11-19T01:53:29;10.90;99.90
12446;DHT22;6287;50.984;7.022;2023-11-19T01:55:58;10.90;99.90
12446;DHT22;6287;50.984;7.022;2023-11-19T01:58:24;10.90;99.90
12446;DHT22;6287;50.984;7.022;2023-11-19T02:00:50;11.00;99.90
12446;DHT22;6287;50.984;7.022;2023-11-19T02:03:19;11.00;99.90
12446;DHT22;6287;50.984;7.022;2023-11-19T02:05:45;11.00;99.90
12446;DHT22;6287;50.984;7.022;2023-11-19T02:08:14;11.00;99.90
12446;DHT22;6287;50.984;7.022;2023-11-19T02:10:42;11.10;99.90
12446;DHT22;6287;50.984;7.022;2023-11-19T02:13:11;11.10;99.90
12446;DHT22;6287;50.984;7.022;2023-11-19T02:15:41;11.10;99.90
12446;DHT22;6287;50.984;7.022;2023-11-19T02:20:45;11.10;99.90
12446;DHT22;6287;50.984;7.022;2023-11-19T02:23:12;11.20;99.90
12446;DHT22;6287;50.984;7.022;2023-11-19T02:25:39;11.20;99.90
12446;DHT22;6287;50.984;7.022;2023-11-19T02:28:08;11.20;99.90
12446;DHT22;6287;50.984;7.022;2023-11-19T02:30:37;11.20;99.90
12446;DHT22;6287;50.984;7.022;2023-11-19T02:33:03;11.20;99.90
12446;DHT22;6287;50.984;7.022;2023-11-19T02:35:31;11.20;99.90
12446;DHT22;6287;50.984;7.022;2023-11-19T02:37:58;11.20;99.90
12446;DHT22;6287;50.984;7.022;2023-11-19T02:40:27;11.30;99.90
12446;DHT22;6287;50.984;7.022;2023-11-19T02:42:57;11.30;99.90
12446;DHT22;6287;50.984;7.022;2023-11-19T02:45:23;11.30;99.90
12446;DHT22;6287;50.984;7.022;2023-11-19T02:47:49;11.30;99.90
12446;DHT22;6287;50.984;7.022;2023-11-19T02:50:15;11.30;99.90
12446;DHT22;6287;50.984;7.022;2023-11-19T02:52:41;11.30;99.90
12446;DHT22;6287;50.984;7.022;2023-11-19T02:55:11;11.30;99.90
12446;DHT22;6287;50.984;7.022;2023-11-19T02:57:42;11.30;99.90
12446;DHT22;6287;50.984;7.022;2023-11-19T03:00:18;11.30;99.90
12446;DHT22;6287;50.984;7.022;2023-11-19T03:02:46;11.30;99.90
12446;DHT22;6287;50.984;7.022;2023-11-19T03:05:16;11.30;99.90
12446;DHT22;6287;50.984;7.022;2023-11-19T03:07:43;11.30;99.90
12446;DHT22;6287;50.984;7.022;2023-11-19T03:10:12;11.30;99.90
12446;DHT22;6287;50.984;7.022;2023-11-19T03:12:43;11.30;99.90
12446;DHT22;6287;50.984;7.022;2023-11-19T03:15:09;11.30;99.90
12446;DHT22;6287;50.984;7.022;2023-11-19T03:17:36;11.30;99.90
12446;DHT22;6287;50.984;7.022;2023-11-19T03:20:05;11.30;99.90
12446;DHT22;6287;50.984;7.022;2023-11-19T03:22:36;11.30;99.90
12446;DHT22;6287;50.984;7.022;2023-11-19T03:25:02;11.30;99.90
12446;DHT22;6287;50.984;7.022;2023-11-19T03:27:27;11.30;99.90
12446;DHT22;6287;50.984;7.022;2023-11-19T03:29:55;11.30;99.90
12446;DHT22;6287;50.984;7.022;2023-11-19T03:32:21;11.40;99.90
12446;DHT22;6287;50.984;7.022;2023-11-19T03:34:46;11.40;99.90
12446;DHT22;6287;50.984;7.022;2023-11-19T03:37:12;11.40;99.90
12446;DHT22;6287;50.984;7.022;2023-11-19T03:39:41;11.40;99.90
12446;DHT22;6287;50.984;7.022;2023-11-19T03:42:07;11.40;99.90
12446;DHT22;6287;50.984;7.022;2023-11-19T03:44:37;11.40;99.90
12446;DHT22;6287;50.984;7.022;2023-11-19T03:47:03;11.40;99.90
12446;DHT22;6287;50.984;7.022;2023-11-19T03:49:33;11.50;99.90
12446;DHT22;6287;50.984;7.022;2023-11-19T03:51:59;11.50;99.90
12446;DHT22;6287;50.984;7.022;2023-11-19T03:54:27;11.50;99.90
12446;DHT22;6287;50.984;7.022;2023-11-19T03:56:53;11.60;99.90
12446;DHT22;6287;50.984;7.022;2023-11-19T03:59:21;11.70;99.90
12446;DHT22;6287;50.984;7.022;2023-11-19T04:01:46;11.70;99.90
12446;DHT22;6287;50.984;7.022;2023-11-19T04:04:14;11.80;99.90
12446;DHT22;6287;50.984;7.022;2023-11-19T04:06:39;11.90;99.90
12446;DHT22;6287;50.984;7.022;2023-11-19T04:09:07;11.90;99.90
12446;DHT22;6287;50.984;7.022;2023-11-19T04:11:35;11.90;99.90
12446;DHT22;6287;50.984;7.022;2023-11-19T04:14:03;12.00;99.90
12446;DHT22;6287;50.984;7.022;2023-11-19T04:16:29;12.00;99.90
12446;DHT22;6287;50.984;7.022;2023-11-19T04:18:59;12.00;99.90
12446;DHT22;6287;50.984;7.022;2023-11-19T04:21:27;12.00;99.90
12446;DHT22;6287;50.984;7.022;2023-11-19T04:23:55;12.00;99.90
12446;DHT22;6287;50.984;7.022;2023-11-19T04:26:20;12.00;99.90
12446;DHT22;6287;50.984;7.022;2023-11-19T04:28:46;12.00;99.90
12446;DHT22;6287;50.984;7.022;2023-11-19T04:31:15;12.00;99.90
12446;DHT22;6287;50.984;7.022;2023-11-19T04:33:41;12.10;99.90
12446;DHT22;6287;50.984;7.022;2023-11-19T04:36:07;12.10;99.90
12446;DHT22;6287;50.984;7.022;2023-11-19T04:38:37;12.10;99.90
12446;DHT22;6287;50.984;7.022;2023-11-19T04:41:04;12.10;99.90
12446;DHT22;6287;50.984;7.022;2023-11-19T04:43:31;12.20;99.90
12446;DHT22;6287;50.984;7.022;2023-11-19T04:45:59;12.10;99.90
12446;DHT22;6287;50.984;7.022;2023-11-19T04:48:24;12.20;99.90
12446;DHT22;6287;50.984;7.022;2023-11-19T04:50:50;12.20;99.90
12446;DHT22;6287;50.984;7.022;2023-11-19T04:53:18;12.20;99.90
12446;DHT22;6287;50.984;7.022;2023-11-19T04:55:43;12.20;99.90
12446;DHT22;6287;50.984;7.022;2023-11-19T04:58:11;12.20;99.90
12446;DHT22;6287;50.984;7.022;2023-11-19T05:00:37;12.20;99.90
12446;DHT22;6287;50.984;7.022;2023-11-19T05:03:02;12.20;99.90
12446;DHT22;6287;50.984;7.022;2023-11-19T05:05:30;12.20;99.90
12446;DHT22;6287;50.984;7.022;2023-11-19T05:07:56;12.20;99.90
12446;DHT22;6287;50.984;7.022;2023-11-19T05:10:24;12.20;99.90
12446;DHT22;6287;50.984;7.022;2023-11-19T05:12:53;12.20;99.90
12446;DHT22;6287;50.984;7.022;2023-11-19T05:15:20;12.20;99.90
12446;DHT22;6287;50.984;7.022;2023-11-19T05:17:46;12.20;99.90
12446;DHT22;6287;50.984;7.022;2023-11-19T05:20:11;12.20;99.90
12446;DHT22;6287;50.984;7.022;2023-11-19T05:22:44;12.20;99.90
12446;DHT22;6287;50.984;7.022;2023-11-19T05:25:11;12.20;99.90
12446;DHT22;6287;50.984;7.022;2023-11-19T05:27:39;12.10;99.90
12446;DHT22;6287;50.984;7.022;2023-11-19T05:30:05;12.10;99.90
12446;DHT22;6287;50.984;7.022;2023-11-19T05:32:35;12.10;99.90
12446;DHT22;6287;50.984;7.022;2023-11-19T05:35:01;12.00;99.90
12446;DHT22;6287;50.984;7.022;2023-11-19T05:37:27;12.00;99.90
12446;DHT22;6287;50.984;7.022;2023-11-19T05:39:52;12.00;99.90
12446;DHT22;6287;50.984;7.022;2023-11-19T05:42:18;11.90;99.90
12446;DHT22;6287;50.984;7.022;2023-11-19T05:44:44;11.80;99.90
12446;DHT22;6287;50.984;7.022;2023-11-19T05:47:09;11.80;99.90
12446;DHT22;6287;50.984;7.022;2023-11-19T05:49:35;11.70;99.90
12446;DHT22;6287;50.984;7.022;2023-11-19T05:52:01;11.70;99.90
12446;DHT22;6287;50.984;7.022;2023-11-19T05:54:29;11.70;99.90
12446;DHT22;6287;50.984;7.022;2023-11-19T05:56:54;11.70;99.90
12446;DHT22;6287;50.984;7.022;2023-11-19T05:59:22;11.60;99.90
12446;DHT22;6287;50.984;7.022;2023-11-19T06:01:52;11.60;99.90
12446;DHT22;6287;50.984;7.022;2023-11-19T06:04:17;11.60;99.90
12446;DHT22;6287;50.984;7.022;2023-11-19T06:06:46;11.50;99.90
12446;DHT22;6287;50.984;7.022;2023-11-19T06:09:11;11.50;99.90
12446;DHT22;6287;50.984;7.022;2023-11-19T06:11:38;11.40;99.90
12446;DHT22;6287;50.984;7.022;2023-11-19T06:14:06;11.40;99.90
12446;DHT22;6287;50.984;7.022;2023-11-19T06:16:32;11.50;99.90
12446;DHT22;6287;50.984;7.022;2023-11-19T06:18:58;11.50;99.90
12446;DHT22;6287;50.984;7.022;2023-11-19T06:21:24;11.50;99.90
12446;DHT22;6287;50.984;7.022;2023-11-19T06:23:50;11.50;99.90
12446;DHT22;6287;50.984;7.022;2023-11-19T06:26:17;11.50;99.90
12446;DHT22;6287;50.984;7.022;2023-11-19T06:28:43;11.50;99.90
12446;DHT22;6287;50.984;7.022;2023-11-19T06:31:11;11.50;99.90
12446;DHT22;6287;50.984;7.022;2023-11-19T06:33:37;11.50;99.90
12446;DHT22;6287;50.984;7.022;2023-11-19T06:36:03;11.50;99.90
12446;DHT22;6287;50.984;7.022;2023-11-19T06:38:29;11.50;99.90
12446;DHT22;6287;50.984;7.022;2023-11-19T06:40:56;11.50;99.90
12446;DHT22;6287;50.984;7.022;2023-11-19T06:43:22;11.50;99.90
12446;DHT22;6287;50.984;7.022;2023-11-19T06:45:47;11.50;99.90
12446;DHT22;6287;50.984;7.022;2023-11-19T06:48:15;11.50;99.90
12446;DHT22;6287;50.984;7.022;2023-11-19T06:50:42;11.40;99.90
12446;DHT22;6287;50.984;7.022;2023-11-19T06:53:07;11.50;99.90
12446;DHT22;6287;50.984;7.022;2023-11-19T06:55:35;11.50;99.90
12446;DHT22;6287;50.984;7.022;2023-11-19T06:58:01;11.50;99.90
12446;DHT22;6287;50.984;7.022;2023-11-19T07:00:31;11.40;99.90
12446;DHT22;6287;50.984;7.022;2023-11-19T07:03:00;11.30;99.90
12446;DHT22;6287;50.984;7.022;2023-11-19T07:05:28;11.30;99.90
12446;DHT22;6287;50.984;7.022;2023-11-19T07:07:56;11.30;99.90
12446;DHT22;6287;50.984;7.022;2023-11-19T07:10:24;11.20;99.90
12446;DHT22;6287;50.984;7.022;2023-11-19T07:12:52;11.20;99.90
12446;DHT22;6287;50.984;7.022;2023-11-19T07:15:18;11.20;99.90
12446;DHT22;6287;50.984;7.022;2023-11-19T07:17:43;11.20;99.90
12446;DHT22;6287;50.984;7.022;2023-11-19T07:20:10;11.20;99.90
12446;DHT22;6287;50.984;7.022;2023-11-19T07:22:44;11.20;99.90
12446;DHT22;6287;50.984;7.022;2023-11-19T07:25:15;11.20;99.90
12446;DHT22;6287;50.984;7.022;2023-11-19T07:27:45;11.20;99.90
12446;DHT22;6287;50.984;7.022;2023-11-19T07:30:13;11.30;99.90
12446;DHT22;6287;50.984;7.022;2023-11-19T07:32:39;11.30;99.90
12446;DHT22;6287;50.984;7.022;2023-11-19T07:35:07;11.30;99.90
12446;DHT22;6287;50.984;7.022;2023-11-19T07:37:35;11.30;99.90
12446;DHT22;6287;50.984;7.022;2023-11-19T07:40:00;11.30;99.90
12446;DHT22;6287;50.984;7.022;2023-11-19T07:42:28;11.30;99.90
12446;DHT22;6287;50.984;7.022;2023-11-19T07:44:54;11.30;99.90
12446;DHT22;6287;50.984;7.022;2023-11-19T07:47:22;11.30;99.90
12446;DHT22;6287;50.984;7.022;2023-11-19T07:49:51;11.30;99.90
12446;DHT22;6287;50.984;7.022;2023-11-19T07:52:19;11.30;99.90
12446;DHT22;6287;50.984;7.022;2023-11-19T07:54:44;11.40;99.90
12446;DHT22;6287;50.984;7.022;2023-11-19T07:57:10;11.40;99.90
12446;DHT22;6287;50.984;7.022;2023-11-19T07:59:35;11.40;99.90
12446;DHT22;6287;50.984;7.022;2023-11-19T08:02:01;11.40;99.90
12446;DHT22;6287;50.984;7.022;2023-11-19T08:04:29;11.40;99.90
12446;DHT22;6287;50.984;7.022;2023-11-19T08:06:57;11.40;99.90
12446;DHT22;6287;50.984;7.022;2023-11-19T08:09:23;11.40;99.90
12446;DHT22;6287;50.984;7.022;2023-11-19T08:11:51;11.40;99.90
12446;DHT22;6287;50.984;7.022;2023-11-19T08:14:19;11.40;99.90
12446;DHT22;6287;50.984;7.022;2023-11-19T08:16:47;11.40;99.90
12446;DHT22;6287;50.984;7.022;2023-11-19T08:19:13;11.40;99.90
12446;DHT22;6287;50.984;7.022;2023-11-19T08:21:41;11.50;99.90
12446;DHT22;6287;50.984;7.022;2023-11-19T08:24:11;11.50;99.90
12446;DHT22;6287;50.984;7.022;2023-11-19T08:26:41;11.60;99.90
12446;DHT22;6287;50.984;7.022;2023-11-19T08:29:07;11.70;99.90
12446;DHT22;6287;50.984;7.022;2023-11-19T08:31:32;11.80;99.90
12446;DHT22;6287;50.984;7.022;2023-11-19T08:34:00;12.00;99.90
12446;DHT22;6287;50.984;7.022;2023-11-19T08:36:33;12.10;99.90
12446;DHT22;6287;50.984;7.022;2023-11-19T08:39:01;12.30;99.90
12446;DHT22;6287;50.984;7.022;2023-11-19T08:41:26;12.40;99.90
12446;DHT22;6287;50.984;7.022;2023-11-19T08:43:52;12.50;99.90
12446;DHT22;6287;50.984;7.022;2023-11-19T08:46:20;12.60;99.90
12446;DHT22;6287;50.984;7.022;2023-11-19T08:48:48;12.70;99.90
12446;DHT22;6287;50.984;7.022;2023-11-19T08:51:14;12.80;99.90
12446;DHT22;6287;50.984;7.022;2023-11-19T08:53:39;12.80;99.90
12446;DHT22;6287;50.984;7.022;2023-11-19T08:56:07;12.80;99.90
12446;DHT22;6287;50.984;7.022;2023-11-19T08:58:35;12.90;99.90
12446;DHT22;6287;50.984;7.022;2023-11-19T09:01:00;12.90;99.90
12446;DHT22;6287;50.984;7.022;2023-11-19T09:03:28;12.90;99.90
12446;DHT22;6287;50.984;7.022;2023-11-19T09:05:56;12.90;99.90
12446;DHT22;6287;50.984;7.022;2023-11-19T09:08:26;13.00;99.90
12446;DHT22;6287;50.984;7.022;2023-11-19T09:10:52;13.00;99.90
12446;DHT22;6287;50.984;7.022;2023-11-19T09:13:17;13.10;99.90
12446;DHT22;6287;50.984;7.022;2023-11-19T09:15:43;13.10;99.90
12446;DHT22;6287;50.984;7.022;2023-11-19T09:18:11;13.20;99.90
12446;DHT22;6287;50.984;7.022;2023-11-19T09:20:37;13.20;99.90
12446;DHT22;6287;50.984;7.022;2023-11-19T09:23:05;13.40;99.90
12446;DHT22;6287;50.984;7.022;2023-11-19T09:25:31;13.50;99.90
12446;DHT22;6287;50.984;7.022;2023-11-19T09:27:56;13.70;99.90
12446;DHT22;6287;50.984;7.022;2023-11-19T09:30:22;13.70;99.90
12446;DHT22;6287;50.984;7.022;2023-11-19T09:32:48;13.80;99.90
12446;DHT22;6287;50.984;7.022;2023-11-19T09:35:18;14.10;99.90
12446;DHT22;6287;50.984;7.022;2023-11-19T09:37:46;14.10;99.90
12446;DHT22;6287;50.984;7.022;2023-11-19T09:40:12;14.30;99.90
12446;DHT22;6287;50.984;7.022;2023-11-19T09:42:43;14.30;99.90
12446;DHT22;6287;50.984;7.022;2023-11-19T09:45:15;14.40;99.90
12446;DHT22;6287;50.984;7.022;2023-11-19T09:47:45;14.40;99.90
12446;DHT22;6287;50.984;7.022;2023-11-19T09:50:16;14.50;99.90
12446;DHT22;6287;50.984;7.022;2023-11-19T09:52:46;14.50;99.90
12446;DHT22;6287;50.984;7.022;2023-11-19T09:55:14;14.40;99.90
12446;DHT22;6287;50.984;7.022;2023-11-19T09:57:43;14.40;99.90
12446;DHT22;6287;50.984;7.022;2023-11-19T10:00:10;14.30;99.90
12446;DHT22;6287;50.984;7.022;2023-11-19T10:02:37;14.30;99.90
12446;DHT22;6287;50.984;7.022;2023-11-19T10:05:06;14.30;99.90
12446;DHT22;6287;50.984;7.022;2023-11-19T10:07:33;14.30;99.90
12446;DHT22;6287;50.984;7.022;2023-11-19T10:10:00;14.30;99.90
12446;DHT22;6287;50.984;7.022;2023-11-19T10:12:27;14.30;99.90
12446;DHT22;6287;50.984;7.022;2023-11-19T10:14:55;14.30;99.90
12446;DHT22;6287;50.984;7.022;2023-11-19T10:17:21;14.30;99.90
12446;DHT22;6287;50.984;7.022;2023-11-19T10:19:47;14.40;99.90
12446;DHT22;6287;50.984;7.022;2023-11-19T10:22:12;14.40;99.90
12446;DHT22;6287;50.984;7.022;2023-11-19T10:24:42;14.40;99.90
12446;DHT22;6287;50.984;7.022;2023-11-19T10:27:08;14.30;99.90
12446;DHT22;6287;50.984;7.022;2023-11-19T10:29:36;14.20;99.90
12446;DHT22;6287;50.984;7.022;2023-11-19T10:32:06;14.30;99.90
12446;DHT22;6287;50.984;7.022;2023-11-19T10:34:31;14.40;99.90
12446;DHT22;6287;50.984;7.022;2023-11-19T10:36:57;14.50;99.90
12446;DHT22;6287;50.984;7.022;2023-11-19T10:39:23;14.50;99.90
12446;DHT22;6287;50.984;7.022;2023-11-19T10:41:53;14.70;99.90
12446;DHT22;6287;50.984;7.022;2023-11-19T10:44:32;14.90;99.90
12446;DHT22;6287;50.984;7.022;2023-11-19T10:47:05;14.90;99.90
12446;DHT22;6287;50.984;7.022;2023-11-19T10:49:33;14.80;99.90
12446;DHT22;6287;50.984;7.022;2023-11-19T10:52:01;14.80;99.90
12446;DHT22;6287;50.984;7.022;2023-11-19T10:54:34;14.80;99.90
12446;DHT22;6287;50.984;7.022;2023-11-19T10:57:01;14.70;99.90
12446;DHT22;6287;50.984;7.022;2023-11-19T10:59:31;14.70;99.90
12446;DHT22;6287;50.984;7.022;2023-11-19T11:02:02;14.80;99.90
12446;DHT22;6287;50.984;7.022;2023-11-19T11:04:35;14.60;99.90
12446;DHT22;6287;50.984;7.022;2023-11-19T11:07:05;14.60;99.90
12446;DHT22;6287;50.984;7.022;2023-11-19T11:09:31;14.50;99.90
12446;DHT22;6287;50.984;7.022;2023-11-19T11:11:59;14.50;99.90
12446;DHT22;6287;50.984;7.022;2023-11-19T11:14:27;14.50;99.90
12446;DHT22;6287;50.984;7.022;2023-11-19T11:16:53;14.40;99.90
12446;DHT22;6287;50.984;7.022;2023-11-19T11:19:20;14.40;99.90
12446;DHT22;6287;50.984;7.022;2023-11-19T11:21:53;14.30;99.90
12446;DHT22;6287;50.984;7.022;2023-11-19T11:27:48;14.00;99.90
12446;DHT22;6287;50.984;7.022;2023-11-19T11:33:59;14.30;99.90
12446;DHT22;6287;50.984;7.022;2023-11-19T11:36:28;14.80;99.90
12446;DHT22;6287;50.984;7.022;2023-11-19T11:38:58;15.00;99.90
12446;DHT22;6287;50.984;7.022;2023-11-19T11:41:28;14.90;99.90
12446;DHT22;6287;50.984;7.022;2023-11-19T11:44:01;14.90;99.90
12446;DHT22;6287;50.984;7.022;2023-11-19T11:49:07;14.90;99.90
12446;DHT22;6287;50.984;7.022;2023-11-19T11:57:08;14.90;99.90
12446;DHT22;6287;50.984;7.022;2023-11-19T11:59:45;15.10;99.90
12446;DHT22;6287;50.984;7.022;2023-11-19T12:02:13;15.30;99.90
12446;DHT22;6287;50.984;7.022;2023-11-19T12:04:43;15.40;99.90
12446;DHT22;6287;50.984;7.022;2023-11-19T12:07:16;15.70;99.90
12446;DHT22;6287;50.984;7.022;2023-11-19T12:09:53;15.80;99.90
12446;DHT22;6287;50.984;7.022;2023-11-19T12:12:32;15.80;99.90
12446;DHT22;6287;50.984;7.022;2023-11-19T12:20:06;15.50;99.90
12446;DHT22;6287;50.984;7.022;2023-11-19T12:22:39;15.30;99.90
12446;DHT22;6287;50.984;7.022;2023-11-19T12:25:10;15.40;99.90
12446;DHT22;6287;50.984;7.022;2023-11-19T12:27:43;15.40;99.90
12446;DHT22;6287;50.984;7.022;2023-11-19T12:30:12;15.40;99.90
12446;DHT22;6287;50.984;7.022;2023-11-19T12:32:42;15.30;99.90
12446;DHT22;6287;50.984;7.022;2023-11-19T12:35:09;15.20;99.90
12446;DHT22;6287;50.984;7.022;2023-11-19T12:37:41;15.10;99.90
12446;DHT22;6287;50.984;7.022;2023-11-19T12:40:28;15.00;99.90
12446;DHT22;6287;50.984;7.022;2023-11-19T12:42:55;15.10;99.90
12446;DHT22;6287;50.984;7.022;2023-11-19T12:45:21;15.00;99.90
12446;DHT22;6287;50.984;7.022;2023-11-19T12:47:49;14.90;99.90
12446;DHT22;6287;50.984;7.022;2023-11-19T12:50:16;14.90;99.90
12446;DHT22;6287;50.984;7.022;2023-11-19T12:52:58;14.90;99.90
12446;DHT22;6287;50.984;7.022;2023-11-19T12:55:25;14.80;99.90
12446;DHT22;6287;50.984;7.022;2023-11-19T12:57:57;14.70;99.90
12446;DHT22;6287;50.984;7.022;2023-11-19T13:00:24;14.60;99.90
12446;DHT22;6287;50.984;7.022;2023-11-19T13:02:55;14.50;99.90
12446;DHT22;6287;50.984;7.022;2023-11-19T13:07:57;14.30;99.90
12446;DHT22;6287;50.984;7.022;2023-11-19T13:10:28;14.30;99.90
12446;DHT22;6287;50.984;7.022;2023-11-19T13:15:29;14.10;99.90
12446;DHT22;6287;50.984;7.022;2023-11-19T13:17:55;14.00;99.90
12446;DHT22;6287;50.984;7.022;2023-11-19T13:20:25;14.20;99.90
12446;DHT22;6287;50.984;7.022;2023-11-19T13:23:02;14.10;99.90
12446;DHT22;6287;50.984;7.022;2023-11-19T13:25:28;14.00;99.90
12446;DHT22;6287;50.984;7.022;2023-11-19T13:27:57;14.10;99.90
12446;DHT22;6287;50.984;7.022;2023-11-19T13:30:23;14.10;99.90
12446;DHT22;6287;50.984;7.022;2023-11-19T13:32:50;14.10;99.90
12446;DHT22;6287;50.984;7.022;2023-11-19T13:35:22;14.10;99.90
12446;DHT22;6287;50.984;7.022;2023-11-19T13:37:51;14.00;99.90
12446;DHT22;6287;50.984;7.022;2023-11-19T13:40:20;13.90;99.90
12446;DHT22;6287;50.984;7.022;2023-11-19T13:42:49;13.90;99.90
12446;DHT22;6287;50.984;7.022;2023-11-19T13:45:15;13.90;99.90
12446;DHT22;6287;50.984;7.022;2023-11-19T13:47:45;13.90;99.90
12446;DHT22;6287;50.984;7.022;2023-11-19T13:50:16;14.00;99.90
12446;DHT22;6287;50.984;7.022;2023-11-19T13:52:45;14.10;99.90
12446;DHT22;6287;50.984;7.022;2023-11-19T13:55:15;14.10;99.90
12446;DHT22;6287;50.984;7.022;2023-11-19T13:57:41;14.10;99.90
12446;DHT22;6287;50.984;7.022;2023-11-19T14:00:12;14.10;99.90
12446;DHT22;6287;50.984;7.022;2023-11-19T14:02:45;14.10;99.90
12446;DHT22;6287;50.984;7.022;2023-11-19T14:05:11;14.10;99.90
12446;DHT22;6287;50.984;7.022;2023-11-19T14:07:38;14.10;99.90
12446;DHT22;6287;50.984;7.022;2023-11-19T14:10:07;14.00;99.90
12446;DHT22;6287;50.984;7.022;2023-11-19T14:12:39;14.00;99.90
12446;DHT22;6287;50.984;7.022;2023-11-19T14:15:08;14.00;99.90
12446;DHT22;6287;50.984;7.022;2023-11-19T14:17:38;13.90;99.90
12446;DHT22;6287;50.984;7.022;2023-11-19T14:20:10;13.90;99.90
12446;DHT22;6287;50.984;7.022;2023-11-19T14:22:45;13.90;99.90
12446;DHT22;6287;50.984;7.022;2023-11-19T14:25:13;13.80;99.90
12446;DHT22;6287;50.984;7.022;2023-11-19T14:27:45;13.80;99.90
12446;DHT22;6287;50.984;7.022;2023-11-19T14:30:12;13.80;99.90
12446;DHT22;6287;50.984;7.022;2023-11-19T14:32:42;13.80;99.90
12446;DHT22;6287;50.984;7.022;2023-11-19T14:35:10;13.70;99.90
12446;DHT22;6287;50.984;7.022;2023-11-19T14:37:35;13.70;99.90
12446;DHT22;6287;50.984;7.022;2023-11-19T14:40:03;13.70;99.90
12446;DHT22;6287;50.984;7.022;2023-11-19T14:42:33;13.60;99.90
12446;DHT22;6287;50.984;7.022;2023-11-19T14:44:59;13.60;99.90
12446;DHT22;6287;50.984;7.022;2023-11-19T14:47:24;13.60;99.90
12446;DHT22;6287;50.984;7.022;2023-11-19T14:49:50;13.60;99.90
12446;DHT22;6287;50.984;7.022;2023-11-19T14:52:18;13.60;99.90
12446;DHT22;6287;50.984;7.022;2023-11-19T14:54:43;13.50;99.90
12446;DHT22;6287;50.984;7.022;2023-11-19T14:57:09;13.60;99.90
12446;DHT22;6287;50.984;7.022;2023-11-19T14:59:38;13.60;99.90
12446;DHT22;6287;50.984;7.022;2023-11-19T15:02:04;13.60;99.90
12446;DHT22;6287;50.984;7.022;2023-11-19T15:04:30;13.60;99.90
12446;DHT22;6287;50.984;7.022;2023-11-19T15:06:59;13.60;99.90
12446;DHT22;6287;50.984;7.022;2023-11-19T15:09:25;13.50;99.90
12446;DHT22;6287;50.984;7.022;2023-11-19T15:11:54;13.50;99.90
12446;DHT22;6287;50.984;7.022;2023-11-19T15:14:22;13.40;99.90
12446;DHT22;6287;50.984;7.022;2023-11-19T15:16:47;13.40;99.90
12446;DHT22;6287;50.984;7.022;2023-11-19T15:19:16;13.40;99.90
12446;DHT22;6287;50.984;7.022;2023-11-19T15:21:45;13.40;99.90
12446;DHT22;6287;50.984;7.022;2023-11-19T15:24:10;13.30;99.90
12446;DHT22;6287;50.984;7.022;2023-11-19T15:26:36;13.20;99.90
12446;DHT22;6287;50.984;7.022;2023-11-19T15:29:03;13.20;99.90
12446;DHT22;6287;50.984;7.022;2023-11-19T15:31:29;13.20;99.90
12446;DHT22;6287;50.984;7.022;2023-11-19T15:33:55;13.20;99.90
12446;DHT22;6287;50.984;7.022;2023-11-19T15:36:26;13.10;99.90
12446;DHT22;6287;50.984;7.022;2023-11-19T15:38:54;13.10;99.90
12446;DHT22;6287;50.984;7.022;2023-11-19T15:41:20;12.90;99.90
12446;DHT22;6287;50.984;7.022;2023-11-19T15:43:47;12.80;99.90
12446;DHT22;6287;50.984;7.022;2023-11-19T15:46:13;12.70;99.90
12446;DHT22;6287;50.984;7.022;2023-11-19T15:48:39;12.60;99.90
12446;DHT22;6287;50.984;7.022;2023-11-19T15:51:04;12.60;99.90
12446;DHT22;6287;50.984;7.022;2023-11-19T15:53:30;12.50;99.90
12446;DHT22;6287;50.984;7.022;2023-11-19T15:56:00;12.40;99.90
12446;DHT22;6287;50.984;7.022;2023-11-19T15:58:27;12.40;99.90
12446;DHT22;6287;50.984;7.022;2023-11-19T16:00:55;12.40;99.90
12446;DHT22;6287;50.984;7.022;2023-11-19T16:03:21;12.40;99.90
12446;DHT22;6287;50.984;7.022;2023-11-19T16:05:48;12.40;99.90
12446;DHT22;6287;50.984;7.022;2023-11-19T16:08:16;12.30;99.90
12446;DHT22;6287;50.984;7.022;2023-11-19T16:10:44;12.30;99.90
12446;DHT22;6287;50.984;7.022;2023-11-19T16:13:17;12.30;99.90
12446;DHT22;6287;50.984;7.022;2023-11-19T16:15:44;12.20;99.90
12446;DHT22;6287;50.984;7.022;2023-11-19T16:18:12;12.20;99.90
12446;DHT22;6287;50.984;7.022;2023-11-19T16:20:39;12.20;99.90